^^

..:: Storico WU ::.. Logo MeteoMincio




  Full-screen


Lo storico viene creato da WUnderground con i dati che la stazione Meteomincio invia dal 15 maggio 2010. L' aggiornamento viene fatto ogni 5 minuti circa, tuttavia possono esserci intervalli più ampi a causa di errori, interruzioni di servizio o problemi nell' invio tramite FTP.

Storico stazione MeteoMincio
 
Giorno Sommario per Aprile 26, 2018 Unità:  Metrico    Inglese   Entrambi
« Precedente Giorno
Prossimo Giorno »
Giorno Settimana Mese Anno Custom
  Corrente: Max: Min: Media:
Temperatura: -3.1 °C -17.8 °C -10.3 °C -7.3 °C
Dew Point: -9.2 °C -17.8 °C -11.6 °C -10.2 °C
Humidità: 51 % Humidity % 50 % 72 %
Velocità vento: 33.6 km/h 0 km/h 33.6 km/h 33.5 km/h
Raffica: 33.6 km/h 0 km/h - -
Direzione:West - - SW
Pressione: 34188.4 hPa 0 hPa 34188.4 hPa -
Precipitazioni: 0 mm      
Historical Graphs
 
 
Tabulato Dati per Aprile 26, 2018
Ora Temperatura Dew Point Pressione Direzione Velocità vento Raffica Umidità Intensità pioggia (oraria) Info solare Situazione
-17.8 °C -17.8 °C 0 hPa Calm     Humidity % 0 mm SolarRadiationWatts/m^2 W/m2 Conditions
00:03 -7.1 °C -10.9 °C 34279.9 hPa SW 33.6 km/h 33.6 km/h 65 % 0 mm 0.0 W/m2 FEW
00:08 -7.2 °C -10.9 °C 34279.9 hPa SW 33.6 km/h 33.6 km/h 65 % 0 mm 0.0 W/m2 FEW
00:13 -7.2 °C -10.9 °C 34279.9 hPa SW 33.6 km/h 33.6 km/h 65 % 0 mm 0.0 W/m2 FEW
00:18 -7.2 °C -10.9 °C 34279.9 hPa SW 33.6 km/h 33.6 km/h 65 % 0 mm 0.0 W/m2 FEW
00:23 -7.4 °C -11 °C 34279.9 hPa WSW 33.6 km/h 33.6 km/h 66 % 0 mm 0.0 W/m2 FEW
00:28 -7.6 °C -11 °C 34279.9 hPa West 33.6 km/h 33.6 km/h 67 % 0 mm 0.0 W/m2 FEW
00:33 -7.7 °C -11 °C 34279.9 hPa West 33.6 km/h 33.6 km/h 68 % 0 mm 0.0 W/m2 FEW
00:38 -7.8 °C -11.1 °C 34279.9 hPa West 33.6 km/h 33.6 km/h 68 % 0 mm 0.0 W/m2 FEW
00:43 -7.9 °C -11.1 °C 34279.9 hPa West 33.6 km/h 33.6 km/h 69 % 0 mm 0.0 W/m2 FEW
00:48 -7.8 °C -11 °C 34279.9 hPa West 33.6 km/h 33.6 km/h 69 % 0 mm 0.0 W/m2 FEW
00:53 -7.9 °C -11.1 °C 34279.9 hPa West 33.6 km/h 33.6 km/h 69 % 0 mm 0.0 W/m2 FEW
00:58 -8 °C -11.2 °C 34279.9 hPa West 33.6 km/h 33.6 km/h 69 % 0 mm 0.0 W/m2 FEW
01:03 -8.2 °C -11.2 °C 34279.9 hPa WSW 33.6 km/h 33.6 km/h 70 % 0 mm 0.0 W/m2 CLR
01:08 -8.2 °C -11.2 °C 34279.9 hPa WSW 33.6 km/h 33.6 km/h 70 % 0 mm 0.0 W/m2 CLR
01:13 -8.2 °C -11.2 °C 34279.9 hPa WSW 33.6 km/h 33.6 km/h 71 % 0 mm 0.0 W/m2 CLR
01:18 -8.4 °C -11.2 °C 34279.9 hPa WSW 33.6 km/h 33.6 km/h 72 % 0 mm 0.0 W/m2 CLR
01:23 -8.3 °C -11.2 °C 34279.9 hPa SW 33.6 km/h 33.6 km/h 72 % 0 mm 0.0 W/m2 CLR
01:28 -8.3 °C -11.2 °C 34279.9 hPa SW 33.6 km/h 33.6 km/h 72 % 0 mm 0.0 W/m2 CLR
01:33 -8.2 °C -11.1 °C 34279.9 hPa SW 33.6 km/h 33.6 km/h 72 % 0 mm 0.0 W/m2 CLR
01:38 -8.3 °C -11.2 °C 34279.9 hPa SW 33.6 km/h 33.6 km/h 72 % 0 mm 0.0 W/m2 CLR
01:43 -8.5 °C -11.2 °C 34269.7 hPa WSW 33.6 km/h 33.6 km/h 73 % 0 mm 0.0 W/m2 CLR
01:48 -8.7 °C -11.3 °C 34269.7 hPa WSW 33.6 km/h 33.6 km/h 74 % 0 mm 0.0 W/m2 CLR
01:53 -8.7 °C -11.3 °C 34269.7 hPa WSW 33.6 km/h 33.6 km/h 74 % 0 mm 0.0 W/m2 CLR
01:58 -8.8 °C -11.3 °C 34269.7 hPa WSW 33.6 km/h 33.6 km/h 75 % 0 mm 0.0 W/m2 CLR
02:03 -8.8 °C -11.2 °C 34269.7 hPa WSW 33.6 km/h 33.6 km/h 76 % 0 mm 0.0 W/m2 CLR
02:08 -8.9 °C -11.2 °C 34269.7 hPa WSW 33.6 km/h 33.6 km/h 76 % 0 mm 0.0 W/m2 CLR
02:13 -8.9 °C -11.2 °C 34269.7 hPa WSW 33.6 km/h 33.6 km/h 77 % 0 mm 0.0 W/m2 CLR
02:18 -8.9 °C -11.2 °C 34269.7 hPa WSW 33.6 km/h 33.6 km/h 77 % 0 mm 0.0 W/m2 CLR
02:23 -8.9 °C -11.2 °C 34269.7 hPa WSW 33.6 km/h 33.6 km/h 77 % 0 mm 0.0 W/m2 CLR
02:28 -8.8 °C -11.1 °C 34269.7 hPa WSW 33.6 km/h 33.6 km/h 77 % 0 mm 0.0 W/m2 CLR
02:33 -8.8 °C -11 °C 34256.2 hPa WSW 33.6 km/h 33.6 km/h 77 % 0 mm 0.0 W/m2 CLR
02:38 -8.8 °C -11 °C 34269.7 hPa WSW 33.6 km/h 33.6 km/h 77 % 0 mm 0.0 W/m2 CLR
02:43 -8.8 °C -11 °C 34256.2 hPa WSW 33.6 km/h 33.6 km/h 77 % 0 mm 0.0 W/m2 CLR
02:48 -8.7 °C -10.9 °C 34256.2 hPa WSW 33.6 km/h 33.6 km/h 77 % 0 mm 0.0 W/m2 CLR
02:53 -8.7 °C -10.9 °C 34256.2 hPa WSW 33.6 km/h 33.6 km/h 77 % 0 mm 0.0 W/m2 CLR
02:58 -8.7 °C -11.1 °C 34256.2 hPa WSW 33.6 km/h 33.6 km/h 76 % 0 mm 0.0 W/m2 CLR
03:03 -8.8 °C -11.1 °C 34256.2 hPa WSW 33.6 km/h 33.6 km/h 77 % 0 mm 0.0 W/m2 CLR
03:08 -8.8 °C -11.1 °C 34256.2 hPa WSW 33.6 km/h 33.6 km/h 77 % 0 mm 0.0 W/m2 CLR
03:11 -8.9 °C -11.1 °C 34256.2 hPa WSW 33.6 km/h   78 % 0 mm 0.0 W/m2 CLR
03:16 -8.9 °C -11.1 °C 34256.2 hPa WSW 33.6 km/h   78 % 0 mm 0.0 W/m2 CLR
03:21 -8.9 °C -11.1 °C 34256.2 hPa WSW 33.6 km/h   78 % 0 mm 0.0 W/m2 CLR
03:26 -8.9 °C -11.1 °C 34256.2 hPa WSW 33.6 km/h 33.6 km/h 78 % 0 mm 0.0 W/m2 CLR
03:31 -8.9 °C -11 °C 34256.2 hPa WSW 33.6 km/h 33.6 km/h 79 % 0 mm 0.0 W/m2 CLR
03:36 -9 °C -11 °C 34256.2 hPa WSW 33.6 km/h   79 % 0 mm 0.0 W/m2 CLR
03:41 -9.2 °C -11.2 °C 34256.2 hPa WSW 33.6 km/h 33.6 km/h 80 % 0 mm 0.0 W/m2 CLR
03:46 -9.4 °C -11.1 °C 34256.2 hPa WSW 33.6 km/h 33.6 km/h 82 % 0 mm 0.0 W/m2 CLR
03:51 -9.4 °C -11.1 °C 34256.2 hPa WSW 33.6 km/h   82 % 0 mm 0.0 W/m2 CLR
03:56 -9.4 °C -11.1 °C 34246 hPa WSW 33.6 km/h   82 % 0 mm 0.0 W/m2 CLR
04:01 -9.4 °C -11.1 °C 34246 hPa WSW 33.6 km/h   82 % 0 mm 0.0 W/m2 CLR
04:06 -9.5 °C -11.1 °C 34246 hPa WSW 33.6 km/h 33.6 km/h 83 % 0 mm 0.0 W/m2 CLR
04:11 -9.6 °C -11.1 °C 34246 hPa WSW 33.6 km/h 33.6 km/h 84 % 0 mm 0.0 W/m2 CLR
04:16 -9.7 °C -11.2 °C 34246 hPa WSW 33.6 km/h 33.6 km/h 84 % 0 mm 0.0 W/m2 CLR
04:21 -9.7 °C -11.2 °C 34246 hPa WSW 33.6 km/h 33.6 km/h 84 % 0 mm 0.0 W/m2 CLR
04:26 -9.8 °C -11.2 °C 34246 hPa WSW 33.6 km/h   85 % 0 mm 0.0 W/m2 CLR
04:31 -9.8 °C -11.2 °C 34246 hPa WSW 33.6 km/h   85 % 0 mm 0.0 W/m2 CLR
04:36 -9.8 °C -11.2 °C 34235.8 hPa West 33.6 km/h 33.6 km/h 85 % 0 mm 0.0 W/m2 CLR
04:41 -9.8 °C -11.2 °C 34235.8 hPa West 33.6 km/h 33.6 km/h 85 % 0 mm 0.0 W/m2 CLR
04:46 -9.8 °C -11.2 °C 34235.8 hPa West 33.6 km/h 33.6 km/h 85 % 0 mm 0.0 W/m2 CLR
04:51 -9.8 °C -11.2 °C 34235.8 hPa West 33.6 km/h 33.6 km/h 85 % 0 mm 0.0 W/m2 CLR
04:56 -9.8 °C -11.2 °C 34235.8 hPa West 33.6 km/h 33.6 km/h 85 % 0 mm 0.0 W/m2 CLR
05:01 -9.8 °C -11.2 °C 34235.8 hPa West 33.6 km/h 33.6 km/h 85 % 0 mm 0.0 W/m2 CLR
05:06 -9.8 °C -11.2 °C 34235.8 hPa West 33.6 km/h   85 % 0 mm 0.0 W/m2 CLR
05:11 -9.8 °C -11.2 °C 34235.8 hPa West 33.6 km/h   85 % 0 mm 0.0 W/m2 CLR
05:16 -9.8 °C -11.2 °C 34235.8 hPa West 33.6 km/h   85 % 0 mm 0.0 W/m2 CLR
05:21 -9.8 °C -11.2 °C 34235.8 hPa West 33.6 km/h   86 % 0 mm 0.0 W/m2 CLR
05:26 -9.8 °C -11.2 °C 34235.8 hPa West 33.6 km/h 33.6 km/h 86 % 0 mm 0.0 W/m2 CLR
05:31 -9.8 °C -11.2 °C 34235.8 hPa West 33.6 km/h 33.6 km/h 86 % 0 mm 0.0 W/m2 CLR
05:36 -9.8 °C -11.2 °C 34222.3 hPa West 33.6 km/h 33.6 km/h 86 % 0 mm 0.0 W/m2 CLR
05:41 -9.8 °C -11.2 °C 34222.3 hPa West 33.6 km/h 33.6 km/h 86 % 0 mm 0.0 W/m2 CLR
05:46 -9.9 °C -11.3 °C 34235.8 hPa West 33.6 km/h 33.6 km/h 85 % 0 mm 0.0 W/m2 CLR
05:51 -9.9 °C -11.2 °C 34235.8 hPa WSW 33.6 km/h 33.6 km/h 86 % 0 mm 0.0 W/m2 CLR
05:56 -10 °C -11.3 °C 34235.8 hPa WSW 33.6 km/h 33.6 km/h 86 % 0 mm 0.0 W/m2 CLR
06:01 -10.1 °C -11.3 °C 34235.8 hPa WSW 33.6 km/h 33.6 km/h 86 % 0 mm 0.0 W/m2 CLR
06:06 -9.9 °C -11.2 °C 34235.8 hPa WSW 33.6 km/h 33.6 km/h 86 % 0 mm 0.0 W/m2 CLR
06:11 -10.1 °C -11.2 °C 34235.8 hPa WSW 33.6 km/h 33.6 km/h 87 % 0 mm 0.0 W/m2 CLR
06:16 -10.3 °C -11.6 °C 34235.8 hPa WSW 33.6 km/h 33.6 km/h 86 % 0 mm 0.0 W/m2 CLR
06:21 -10.2 °C -11.4 °C 34235.8 hPa WSW 33.6 km/h 33.6 km/h 87 % 0 mm 5.0 W/m2 SCT
06:26 -10.2 °C -11.3 °C 34235.8 hPa WSW 33.6 km/h 33.6 km/h 87 % 0 mm 9.0 W/m2 SCT
06:31 -10.2 °C -11.3 °C 34235.8 hPa WSW 33.6 km/h 33.6 km/h 87 % 0 mm 12.0 W/m2 SCT
06:36 -10.2 °C -11.4 °C 34246 hPa WSW 33.6 km/h 33.6 km/h 87 % 0 mm 14.0 W/m2 BKN
06:41 -10.2 °C -11.4 °C 34246 hPa WSW 33.6 km/h 33.6 km/h 87 % 0 mm 19.0 W/m2 BKN
06:46 -10.1 °C -11.3 °C 34246 hPa WSW 33.6 km/h 33.6 km/h 87 % 0 mm 23.0 W/m2 BKN
06:51 -10.1 °C -11.3 °C 34246 hPa WSW 33.6 km/h 33.6 km/h 86 % 0 mm 26.0 W/m2 BKN
06:56 -9.9 °C -11.3 °C 34246 hPa WSW 33.6 km/h 33.6 km/h 86 % 0 mm 37.0 W/m2 BKN
07:01 -9.8 °C -11.2 °C 34246 hPa WSW 33.6 km/h 33.6 km/h 85 % 0 mm 44.0 W/m2 SCT
07:06 -9.7 °C -11.1 °C 34246 hPa WSW 33.6 km/h 33.6 km/h 85 % 0 mm 46.0 W/m2 BKN
07:11 -9.6 °C -11.1 °C 34256.2 hPa WSW 33.6 km/h   84 % 0 mm 56.0 W/m2 SCT
07:16 -9.4 °C -11 °C 34256.2 hPa WSW 33.6 km/h 33.6 km/h 83 % 0 mm 67.0 W/m2 BKN
07:21 -9.3 °C -10.9 °C 34256.2 hPa WSW 33.6 km/h   83 % 0 mm 84.0 W/m2 SCT
07:26 -9.2 °C -10.9 °C 34256.2 hPa WSW 33.6 km/h   82 % 0 mm 98.0 W/m2 SCT
07:31 -9.1 °C -10.8 °C 34256.2 hPa WSW 33.6 km/h   82 % 0 mm 113.0 W/m2 SCT
07:36 -8.8 °C -10.7 °C 34256.2 hPa WSW 33.6 km/h   81 % 0 mm 125.0 W/m2 SCT
07:41 -8.7 °C -10.6 °C 34256.2 hPa WSW 33.6 km/h   80 % 0 mm 142.0 W/m2 FEW
07:46 -8.6 °C -10.6 °C 34256.2 hPa WSW 33.6 km/h   79 % 0 mm 156.0 W/m2 FEW
07:51 -8.4 °C -10.5 °C 34269.7 hPa WSW 33.6 km/h   79 % 0 mm 171.0 W/m2 FEW
07:56 -8.3 °C -10.2 °C 34269.7 hPa WSW 33.6 km/h 33.6 km/h 80 % 0 mm 183.0 W/m2 FEW
08:01 -8.1 °C -10.2 °C 34269.7 hPa WSW 33.6 km/h   79 % 0 mm 195.0 W/m2 FEW
08:06 -8.2 °C -10.2 °C 34269.7 hPa WSW 33.6 km/h 33.6 km/h 79 % 0 mm 207.0 W/m2 FEW
08:11 -8 °C -9.9 °C 34269.7 hPa WSW 33.6 km/h 33.6 km/h 80 % 0 mm 223.0 W/m2 FEW
08:16 -7.8 °C -9.8 °C 34269.7 hPa SW 33.6 km/h 33.6 km/h 80 % 0 mm 237.0 W/m2 FEW
08:21 -7.7 °C -9.8 °C 34269.7 hPa WSW 33.6 km/h 33.6 km/h 79 % 0 mm 253.0 W/m2 CLR
08:26 -7.6 °C -9.8 °C 34269.7 hPa SW 33.6 km/h 33.6 km/h 78 % 0 mm 265.0 W/m2 CLR
08:31 -7.5 °C -9.8 °C 34269.7 hPa SW 33.6 km/h 33.6 km/h 77 % 0 mm 276.0 W/m2 CLR
08:36 -7.4 °C -9.8 °C 34256.2 hPa SW 33.6 km/h 33.6 km/h 77 % 0 mm 292.0 W/m2 CLR
08:41 -7.3 °C -9.6 °C 34256.2 hPa SW 33.6 km/h 33.6 km/h 78 % 0 mm 306.0 W/m2 CLR
08:46 -7.2 °C -9.5 °C 34269.7 hPa SW 33.6 km/h 33.6 km/h 77 % 0 mm 322.0 W/m2 CLR
08:51 -7.1 °C -9.3 °C 34269.7 hPa ENE 33.6 km/h 33.6 km/h 77 % 0 mm 338.0 W/m2 CLR
08:56 -7.2 °C -9.6 °C 34256.2 hPa East 33.6 km/h 33.6 km/h 76 % 0 mm 345.0 W/m2 CLR
09:01 -7.1 °C -9.4 °C 34256.2 hPa ESE 33.6 km/h 33.6 km/h 77 % 0 mm 369.0 W/m2 CLR
09:06 -7.1 °C -9.6 °C 34256.2 hPa East 33.6 km/h 33.6 km/h 76 % 0 mm 381.0 W/m2 CLR
09:11 -7.1 °C -9.5 °C 34256.2 hPa ESE 33.6 km/h 33.6 km/h 76 % 0 mm 388.0 W/m2 CLR
09:16 -7 °C -9.4 °C 34256.2 hPa East 33.6 km/h 33.6 km/h 76 % 0 mm 415.0 W/m2 CLR
09:21 -6.9 °C -9.3 °C 34256.2 hPa East 33.6 km/h 33.6 km/h 76 % 0 mm 424.0 W/m2 CLR
09:26 -6.9 °C -9.3 °C 34256.2 hPa East 33.6 km/h 33.6 km/h 76 % 0 mm 394.0 W/m2 CLR
09:31 -6.8 °C -9.2 °C 34256.2 hPa East 33.6 km/h 33.6 km/h 76 % 0 mm 420.0 W/m2 FEW
09:36 -6.9 °C -9.3 °C 34256.2 hPa ESE 33.6 km/h 33.6 km/h 76 % 0 mm 448.0 W/m2 FEW
09:41 -6.7 °C -9.3 °C 34256.2 hPa East 33.6 km/h 33.6 km/h 75 % 0 mm 455.0 W/m2 CLR
09:46 -6.6 °C -9.2 °C 34256.2 hPa East 33.6 km/h 33.6 km/h 75 % 0 mm 503.0 W/m2 CLR
09:51 -6.5 °C -9 °C 34256.2 hPa ENE 33.6 km/h 33.6 km/h 75 % 0 mm 454.0 W/m2 CLR
09:56 -6.5 °C -9.1 °C 34256.2 hPa ENE 33.6 km/h 33.6 km/h 74 % 0 mm 483.0 W/m2 CLR
10:01 -6.3 °C -9.1 °C 34256.2 hPa NE 33.6 km/h 33.6 km/h 73 % 0 mm 503.0 W/m2 CLR
10:06 -6.3 °C -9.1 °C 34256.2 hPa ENE 33.6 km/h 33.6 km/h 73 % 0 mm 506.0 W/m2 CLR
10:11 -6.2 °C -9 °C 34256.2 hPa East 33.6 km/h 33.6 km/h 73 % 0 mm 533.0 W/m2 CLR
10:16 -6.4 °C -9.2 °C 34256.2 hPa ESE 33.6 km/h 33.6 km/h 73 % 0 mm 534.0 W/m2 CLR
10:21 -5.9 °C -8.8 °C 34256.2 hPa East 33.6 km/h 33.6 km/h 72 % 0 mm 561.0 W/m2 CLR
10:26 -6 °C -8.9 °C 34256.2 hPa NE 33.6 km/h 33.6 km/h 72 % 0 mm 582.0 W/m2 CLR
10:31 -5.9 °C -9.1 °C 34256.2 hPa NNW 33.6 km/h 33.6 km/h 70 % 0 mm 589.0 W/m2 CLR
10:36 -5.4 °C -8.6 °C 34256.2 hPa ESE 33.6 km/h 33.6 km/h 70 % 0 mm 613.0 W/m2 CLR
10:41 -5.7 °C -8.7 °C 34256.2 hPa East 33.6 km/h 33.6 km/h 71 % 0 mm 612.0 W/m2 CLR
10:46 -5.7 °C -8.8 °C 34256.2 hPa ENE 33.6 km/h 33.6 km/h 71 % 0 mm 636.0 W/m2 CLR
10:51 -5.6 °C -8.8 °C 34256.2 hPa SSW 33.6 km/h 33.6 km/h 70 % 0 mm 643.0 W/m2 CLR
10:56 -5.7 °C -9.1 °C 34256.2 hPa East 33.6 km/h 33.6 km/h 68 % 0 mm 652.0 W/m2 CLR
11:01 -5.6 °C -9.1 °C 34256.2 hPa ENE 33.6 km/h 33.6 km/h 68 % 0 mm 661.0 W/m2 CLR
11:06 -5.6 °C -9.1 °C 34256.2 hPa ESE 33.6 km/h 33.6 km/h 68 % 0 mm 675.0 W/m2 CLR
11:11 -5.5 °C -9.1 °C 34256.2 hPa East 33.6 km/h 33.6 km/h 67 % 0 mm 684.0 W/m2 CLR
11:16 -5.2 °C -9.1 °C 34256.2 hPa East 33.6 km/h 33.6 km/h 65 % 0 mm 686.0 W/m2 CLR
11:21 -5.4 °C -9.3 °C 34256.2 hPa ENE 33.6 km/h 33.6 km/h 64 % 0 mm 708.0 W/m2 CLR
11:26 -5.1 °C -8.9 °C 34256.2 hPa ENE 33.6 km/h 33.6 km/h 65 % 0 mm 701.0 W/m2 CLR
11:31 -5.1 °C -8.8 °C 34256.2 hPa ENE 33.6 km/h 33.6 km/h 66 % 0 mm 708.0 W/m2 CLR
11:36 -5.1 °C -8.9 °C 34256.2 hPa SW 33.6 km/h 33.6 km/h 65 % 0 mm 719.0 W/m2 CLR
11:41 -5.2 °C -8.9 °C 34256.2 hPa WSW 33.6 km/h 33.6 km/h 66 % 0 mm 738.0 W/m2 CLR
11:46 -4.8 °C -8.7 °C 34256.2 hPa SSW 33.6 km/h 33.6 km/h 65 % 0 mm 749.0 W/m2 CLR
11:51 -4.9 °C -8.6 °C 34256.2 hPa SSW 33.6 km/h 33.6 km/h 66 % 0 mm 663.0 W/m2 CLR
11:56 -4.7 °C -8.6 °C 34246 hPa SSW 33.6 km/h 33.6 km/h 65 % 0 mm 707.0 W/m2 CLR
12:01 -4.4 °C -8.6 °C 34246 hPa WSW 33.6 km/h 33.6 km/h 63 % 0 mm 599.0 W/m2 CLR
12:06 -4.7 °C -8.8 °C 34235.8 hPa West 33.6 km/h 33.6 km/h 63 % 0 mm 236.0 W/m2 FEW
12:11 -4.8 °C -9.2 °C 34246 hPa SSW 33.6 km/h 33.6 km/h 61 % 0 mm 564.0 W/m2 SCT
12:16 -4.6 °C -9 °C 34235.8 hPa WSW 33.6 km/h 33.6 km/h 61 % 0 mm 780.0 W/m2 SCT
12:21 -4.5 °C -9.1 °C 34235.8 hPa SSW 33.6 km/h 33.6 km/h 60 % 0 mm 789.0 W/m2 CLR
12:26 -4.4 °C -9 °C 34235.8 hPa SSW 33.6 km/h 33.6 km/h 60 % 0 mm 793.0 W/m2 CLR
12:31 -4.3 °C -8.8 °C 34235.8 hPa SSW 33.6 km/h 33.6 km/h 60 % 0 mm 796.0 W/m2 CLR
12:36 -4.1 °C -8.8 °C 34235.8 hPa SSE 33.6 km/h 33.6 km/h 59 % 0 mm 807.0 W/m2 CLR
12:41 -4 °C -8.9 °C 34222.3 hPa WSW 33.6 km/h 33.6 km/h 58 % 0 mm 805.0 W/m2 CLR
12:46 -4.1 °C -8.8 °C 34222.3 hPa SW 33.6 km/h 33.6 km/h 59 % 0 mm 817.0 W/m2 CLR
12:51 -3.9 °C -8.7 °C 34222.3 hPa SSW 33.6 km/h 33.6 km/h 59 % 0 mm 810.0 W/m2 CLR
12:56 -4 °C -9.2 °C 34222.3 hPa WSW 33.6 km/h 33.6 km/h 56 % 0 mm 803.0 W/m2 CLR
13:01 -4.2 °C -9.3 °C 34212.1 hPa SE 33.6 km/h 33.6 km/h 57 % 0 mm 793.0 W/m2 CLR
13:06 -3.8 °C -9.2 °C 34212.1 hPa SSW 33.6 km/h 33.6 km/h 55 % 0 mm 807.0 W/m2 CLR
13:11 -4.1 °C -9.3 °C 34212.1 hPa SE 33.6 km/h 33.6 km/h 56 % 0 mm 796.0 W/m2 CLR
13:13 -4.1 °C -9.3 °C 34212.1 hPa SE 33.6 km/h 33.6 km/h 56 % 0 mm 809.0 W/m2 CLR
13:18 -3.7 °C -9.1 °C 34212.1 hPa SE 33.6 km/h 33.6 km/h 55 % 0 mm 816.0 W/m2 CLR
13:23 -3.5 °C -8.9 °C 34212.1 hPa WSW 33.6 km/h 33.6 km/h 55 % 0 mm 819.0 W/m2 CLR
13:28 -3.2 °C -9.5 °C 34198.6 hPa WSW 33.6 km/h 33.6 km/h 50 % 0 mm 807.0 W/m2 CLR
13:33 -3.7 °C -9.6 °C 34198.6 hPa SW 33.6 km/h 33.6 km/h 52 % 0 mm 809.0 W/m2 CLR
13:38 -3.3 °C -9.1 °C 34198.6 hPa NW 33.6 km/h 33.6 km/h 53 % 0 mm 800.0 W/m2 CLR
13:43 -3.7 °C -9.6 °C 34198.6 hPa SSW 33.6 km/h 33.6 km/h 52 % 0 mm 561.0 W/m2 CLR
13:48 -3.3 °C -9.5 °C 34198.6 hPa NW 33.6 km/h 33.6 km/h 50 % 0 mm 849.0 W/m2 CLR
13:53 -3.2 °C -9.1 °C 34198.6 hPa WSW 33.6 km/h 33.6 km/h 52 % 0 mm 770.0 W/m2 CLR
13:58 -3.3 °C -9 °C 34198.6 hPa West 33.6 km/h 33.6 km/h 53 % 0 mm 622.0 W/m2 CLR
14:03 -3.8 °C -9.7 °C 34198.6 hPa West 33.6 km/h 33.6 km/h 52 % 0 mm 666.0 W/m2 CLR
14:08 -3.7 °C -9.2 °C 34198.6 hPa WSW 33.6 km/h 33.6 km/h 54 % 0 mm 473.0 W/m2 FEW
14:13 -3.1 °C -9 °C 34198.6 hPa WSW 33.6 km/h 33.6 km/h 52 % 0 mm 765.0 W/m2 FEW
14:18 -2.9 °C -8.9 °C 34198.6 hPa NW 33.6 km/h 33.6 km/h 52 % 0 mm 759.0 W/m2 CLR
14:23 -2.9 °C -9 °C 34198.6 hPa West 33.6 km/h 33.6 km/h 51 % 0 mm 780.0 W/m2 CLR
14:28 -3.3 °C -9.4 °C 34188.4 hPa SW 33.6 km/h 33.6 km/h 51 % 0 mm 773.0 W/m2 CLR
14:33 -3.2 °C -9.1 °C 34188.4 hPa NW 33.6 km/h 33.6 km/h 52 % 0 mm 773.0 W/m2 FEW
14:38 -3.1 °C -9 °C 34188.4 hPa SW 33.6 km/h 33.6 km/h 52 % 0 mm 752.0 W/m2 FEW
14:43 -3.4 °C -9.3 °C 34188.4 hPa SW 33.6 km/h 33.6 km/h 52 % 0 mm 751.0 W/m2 FEW
14:48 -3.1 °C -9 °C 34188.4 hPa WSW 33.6 km/h 33.6 km/h 52 % 0 mm 751.0 W/m2 FEW
14:53 -2.9 °C -9 °C 34188.4 hPa West 33.6 km/h 33.6 km/h 51 % 0 mm 744.0 W/m2 FEW
14:58 -3.1 °C -9.1 °C 34188.4 hPa WNW 33.6 km/h 33.6 km/h 52 % 0 mm 719.0 W/m2 FEW
14:59 -3 °C -8.9 °C 34188.4 hPa WSW 33.6 km/h 33.6 km/h 52 % 0 mm 722.0 W/m2 FEW
15:04 -2.9 °C -9.1 °C 34188.4 hPa NW 33.6 km/h 33.6 km/h 51 % 0 mm 708.0 W/m2 FEW
15:09 -3.1 °C -9.2 °C 34188.4 hPa West 33.6 km/h 33.6 km/h 51 % 0 mm 687.0 W/m2 FEW
Stazione Meteorologica MeteoMincio Rivalta s/M (MN)
Con i complimenti di Weather Underground - 3.25 mb


GLOSSARIO METEOROLOGICO
Punto di Rugiada (Dewpoint)
Il valore di temperatura (in °C) a cui l'aria dovrebbe essere raffreddata (a pressione costante) per raggiungere il 100% di umidità relativa, ovvero, per saturarla di vapore.

Share
Non seguire questo link o sarai bannato dal sito!